Time;durP1;ratioP1;P1;durP2;ratioP2;P2;SDS_P1;SDS_P2;PMS_P1;PMS_P2;Temp;Humidity;BMP_temperature;BMP_pressure;BME280_temperature;BME280_humidity;BME280_pressure;Samples;Min_cycle;Max_cycle;Signal;HPM_P1;HPM_P2
2024/01/10 00:02:00;;;;;;;6.60;3.20;;;;;;;;;;5054895;28;21009;-72
2024/01/10 00:04:25;;;;;;;4.93;3.00;;;;;;;;;;5051806;28;20257;-72
2024/01/10 00:06:50;;;;;;;5.97;3.30;;;;;;;;;;5050438;28;20256;-71
2024/01/10 00:09:16;;;;;;;6.10;3.07;;;;;;;;;;5037997;28;20220;-73
2024/01/10 00:11:41;;;;;;;6.53;3.27;;;;;;;;;;5050381;28;20264;-74
2024/01/10 00:14:07;;;;;;;6.67;3.20;;;;;;;;;;5060253;28;20224;-73
2024/01/10 00:16:32;;;;;;;6.80;3.20;;;;;;;;;;5050397;28;20595;-73
2024/01/10 00:18:57;;;;;;;6.27;3.00;;;;;;;;;;5049036;28;20225;-73
2024/01/10 00:21:23;;;;;;;6.83;3.03;;;;;;;;;;5052159;28;20220;-73
2024/01/10 00:23:49;;;;;;;6.47;3.00;;;;;;;;;;5056553;28;20220;-72
2024/01/10 00:26:15;;;;;;;5.50;2.90;;;;;;;;;;5053790;28;20225;-74
2024/01/10 00:28:40;;;;;;;5.87;3.13;;;;;;;;;;5052254;28;20236;-73
2024/01/10 00:31:05;;;;;;;6.63;3.20;;;;;;;;;;5037804;28;20232;-73
2024/01/10 00:33:31;;;;;;;4.83;2.87;;;;;;;;;;5051815;28;20233;-72
2024/01/10 00:35:56;;;;;;;7.23;3.47;;;;;;;;;;5057834;28;20220;-73
2024/01/10 00:38:21;;;;;;;5.27;3.10;;;;;;;;;;5056008;28;20243;-73
2024/01/10 00:40:47;;;;;;;6.60;3.07;;;;;;;;;;5054621;28;20243;-73
2024/01/10 00:43:12;;;;;;;7.30;3.10;;;;;;;;;;5053113;28;20221;-73
2024/01/10 00:45:37;;;;;;;6.50;3.10;;;;;;;;;;5045762;28;20248;-73
2024/01/10 00:48:03;;;;;;;7.07;3.00;;;;;;;;;;5049135;28;20720;-72
2024/01/10 00:50:28;;;;;;;5.33;3.20;;;;;;;;;;5035329;28;20369;-74
2024/01/10 00:52:54;;;;;;;5.93;3.00;;;;;;;;;;5036058;28;20232;-72
2024/01/10 00:55:19;;;;;;;6.27;3.23;;;;;;;;;;5054308;28;20212;-74
2024/01/10 00:57:44;;;;;;;7.53;3.30;;;;;;;;;;5037907;28;20312;-73
2024/01/10 01:00:10;;;;;;;7.07;3.43;;;;;;;;;;5040139;28;20240;-73
2024/01/10 01:02:36;;;;;;;6.47;3.37;;;;;;;;;;5052160;28;20223;-72
2024/01/10 01:05:02;;;;;;;6.53;3.40;;;;;;;;;;5036603;28;20796;-74
2024/01/10 01:07:27;;;;;;;6.53;3.30;;;;;;;;;;5034630;28;20319;-73
2024/01/10 01:09:52;;;;;;;5.80;3.30;;;;;;;;;;5050464;28;20229;-73
2024/01/10 01:12:18;;;;;;;10.77;3.40;;;;;;;;;;5051718;28;20233;-73
2024/01/10 01:14:43;;;;;;;5.87;3.20;;;;;;;;;;5051620;28;20307;-73
2024/01/10 01:17:08;;;;;;;6.60;3.53;;;;;;;;;;5059030;28;20323;-73
2024/01/10 01:19:34;;;;;;;7.13;3.50;;;;;;;;;;5049501;28;20225;-73
2024/01/10 01:21:59;;;;;;;6.13;3.20;;;;;;;;;;5049777;28;20319;-73
2024/01/10 01:24:24;;;;;;;5.87;3.30;;;;;;;;;;5052768;28;20316;-73
2024/01/10 01:26:50;;;;;;;8.27;3.30;;;;;;;;;;5052962;28;20311;-74
2024/01/10 01:29:15;;;;;;;6.40;3.30;;;;;;;;;;5048954;28;20221;-74
2024/01/10 01:31:41;;;;;;;5.77;3.20;;;;;;;;;;5036901;28;20217;-73
2024/01/10 01:34:06;;;;;;;5.63;3.10;;;;;;;;;;5043354;28;20279;-75
2024/01/10 01:36:32;;;;;;;6.77;3.40;;;;;;;;;;5061058;28;20262;-73
2024/01/10 01:38:57;;;;;;;8.30;3.60;;;;;;;;;;5047777;28;20676;-74
2024/01/10 01:41:23;;;;;;;6.10;3.00;;;;;;;;;;5050742;28;20235;-73
2024/01/10 01:43:48;;;;;;;7.30;3.23;;;;;;;;;;5054481;28;20268;-74
2024/01/10 01:46:14;;;;;;;9.00;3.20;;;;;;;;;;5056103;28;20213;-74
2024/01/10 01:48:39;;;;;;;7.77;3.30;;;;;;;;;;5050914;28;20216;-74
2024/01/10 01:51:05;;;;;;;7.90;3.33;;;;;;;;;;5036290;28;20228;-74
2024/01/10 01:53:31;;;;;;;6.83;3.20;;;;;;;;;;5053956;28;20732;-73
2024/01/10 01:55:57;;;;;;;8.97;3.57;;;;;;;;;;5039638;28;20229;-74
2024/01/10 01:58:22;;;;;;;8.33;3.60;;;;;;;;;;5053163;28;20233;-74
2024/01/10 02:00:48;;;;;;;9.23;3.83;;;;;;;;;;5050565;28;20776;-74
2024/01/10 02:03:13;;;;;;;10.73;3.47;;;;;;;;;;5055349;28;20245;-74
2024/01/10 02:05:39;;;;;;;7.63;3.40;;;;;;;;;;5039403;28;20248;-73
2024/01/10 02:08:04;;;;;;;7.43;3.60;;;;;;;;;;5053761;28;20316;-73
2024/01/10 02:10:30;;;;;;;7.23;3.00;;;;;;;;;;5055449;28;20213;-73
2024/01/10 02:12:55;;;;;;;8.03;3.60;;;;;;;;;;5039881;28;20732;-74
2024/01/10 02:15:20;;;;;;;7.00;3.40;;;;;;;;;;5056115;28;20275;-74
2024/01/10 02:17:46;;;;;;;6.53;3.40;;;;;;;;;;5056761;28;20252;-74
2024/01/10 02:20:16;;;;;;;8.27;3.83;;;;;;;;;;5045557;28;20225;-74
2024/01/10 02:22:42;;;;;;;6.87;3.47;;;;;;;;;;5040288;28;20301;-74
2024/01/10 02:25:08;;;;;;;7.07;3.50;;;;;;;;;;5048691;28;20229;-74
2024/01/10 02:27:34;;;;;;;5.77;3.27;;;;;;;;;;5045044;28;20253;-72
2024/01/10 02:29:59;;;;;;;7.47;3.30;;;;;;;;;;5039252;28;20225;-73
2024/01/10 02:32:24;;;;;;;6.90;3.20;;;;;;;;;;5039379;28;20283;-72
2024/01/10 02:34:50;;;;;;;7.40;3.33;;;;;;;;;;5049828;28;20217;-72
2024/01/10 02:37:15;;;;;;;8.83;3.70;;;;;;;;;;5051842;28;20702;-73
2024/01/10 02:39:41;;;;;;;9.10;3.40;;;;;;;;;;5054980;28;20237;-72
2024/01/10 02:42:06;;;;;;;8.43;3.77;;;;;;;;;;5049725;28;20228;-73
2024/01/10 02:44:31;;;;;;;7.13;3.90;;;;;;;;;;5051215;28;20801;-73
2024/01/10 02:46:57;;;;;;;7.00;3.87;;;;;;;;;;5052220;28;20774;-73
2024/01/10 02:49:22;;;;;;;9.27;4.00;;;;;;;;;;5062234;28;20232;-73
2024/01/10 02:51:47;;;;;;;8.23;3.77;;;;;;;;;;5055001;28;20777;-74
2024/01/10 02:54:12;;;;;;;7.67;4.10;;;;;;;;;;5055298;28;20287;-72
2024/01/10 02:56:38;;;;;;;7.10;3.60;;;;;;;;;;5057838;28;20231;-72
2024/01/10 02:59:03;;;;;;;7.67;3.43;;;;;;;;;;5049880;28;20259;-73
2024/01/10 03:01:28;;;;;;;7.20;3.37;;;;;;;;;;5048734;28;20229;-73
2024/01/10 03:03:54;;;;;;;6.97;3.23;;;;;;;;;;5054452;28;20221;-73
2024/01/10 03:06:19;;;;;;;7.40;3.43;;;;;;;;;;5039414;28;20233;-73
2024/01/10 03:08:44;;;;;;;8.13;3.80;;;;;;;;;;5043537;28;20236;-74
2024/01/10 03:11:10;;;;;;;7.77;3.30;;;;;;;;;;5051045;28;20221;-72
2024/01/10 03:13:35;;;;;;;8.17;3.40;;;;;;;;;;5051833;28;20796;-72
2024/01/10 03:16:01;;;;;;;7.80;3.40;;;;;;;;;;5050901;28;20292;-72
2024/01/10 03:18:26;;;;;;;7.43;3.50;;;;;;;;;;5052964;28;20640;-73
2024/01/10 03:20:51;;;;;;;8.60;3.33;;;;;;;;;;5052013;28;20217;-73
2024/01/10 03:23:17;;;;;;;7.60;3.60;;;;;;;;;;5057627;28;20217;-73
2024/01/10 03:25:42;;;;;;;8.30;3.43;;;;;;;;;;5050500;28;20220;-72
2024/01/10 03:28:07;;;;;;;8.00;3.47;;;;;;;;;;5045414;28;20245;-72
2024/01/10 03:30:33;;;;;;;9.40;3.63;;;;;;;;;;5049609;28;20225;-73
2024/01/10 03:32:58;;;;;;;10.80;3.70;;;;;;;;;;5051984;28;20592;-72
2024/01/10 03:35:23;;;;;;;10.27;3.77;;;;;;;;;;5052950;28;20252;-72
2024/01/10 03:37:49;;;;;;;8.40;3.37;;;;;;;;;;5051830;28;20229;-73
2024/01/10 03:40:14;;;;;;;7.57;3.80;;;;;;;;;;5054041;28;20668;-72
2024/01/10 03:42:39;;;;;;;7.63;3.77;;;;;;;;;;5047857;28;20221;-72
2024/01/10 03:45:05;;;;;;;7.87;3.50;;;;;;;;;;5051643;28;20221;-72
2024/01/10 03:47:30;;;;;;;8.13;3.50;;;;;;;;;;5050827;28;20251;-73
2024/01/10 03:49:56;;;;;;;7.93;3.60;;;;;;;;;;5055265;28;20248;-73
2024/01/10 03:52:21;;;;;;;7.20;3.50;;;;;;;;;;5061015;28;20232;-72
2024/01/10 03:54:46;;;;;;;9.87;3.77;;;;;;;;;;5054491;28;20220;-73
2024/01/10 03:57:12;;;;;;;7.10;3.57;;;;;;;;;;5061594;28;20278;-74
2024/01/10 03:59:37;;;;;;;9.43;3.70;;;;;;;;;;5054027;28;20214;-74
2024/01/10 04:02:03;;;;;;;10.17;3.73;;;;;;;;;;5035499;28;20229;-72
2024/01/10 04:04:29;;;;;;;8.17;3.57;;;;;;;;;;5035232;28;20225;-73
2024/01/10 04:06:54;;;;;;;7.10;3.70;;;;;;;;;;5038561;28;20226;-73
2024/01/10 04:09:19;;;;;;;7.37;3.80;;;;;;;;;;5060197;28;20221;-73
2024/01/10 04:11:45;;;;;;;8.13;3.80;;;;;;;;;;5053380;28;20359;-74
2024/01/10 04:14:10;;;;;;;7.63;3.70;;;;;;;;;;5059700;28;20228;-74
2024/01/10 04:16:36;;;;;;;6.97;3.77;;;;;;;;;;5050037;28;21073;-74
2024/01/10 04:19:01;;;;;;;10.13;3.57;;;;;;;;;;5053238;28;20225;-73
2024/01/10 04:21:26;;;;;;;6.07;3.23;;;;;;;;;;5044101;28;20217;-73
2024/01/10 04:23:52;;;;;;;9.47;3.80;;;;;;;;;;5054862;28;20225;-74
2024/01/10 04:26:20;;;;;;;9.20;3.70;;;;;;;;;;5049112;28;21100;-73
2024/01/10 04:28:45;;;;;;;10.60;3.77;;;;;;;;;;5040990;28;20228;-74
2024/01/10 04:31:11;;;;;;;7.80;3.80;;;;;;;;;;5046019;28;20222;-75
2024/01/10 04:33:36;;;;;;;7.50;3.80;;;;;;;;;;5037374;28;20224;-75
2024/01/10 04:36:01;;;;;;;8.70;4.17;;;;;;;;;;5032493;28;20264;-74
2024/01/10 04:38:27;;;;;;;8.17;3.70;;;;;;;;;;5059523;28;20701;-75
2024/01/10 04:40:52;;;;;;;7.40;4.00;;;;;;;;;;5048019;28;20557;-75
2024/01/10 04:43:18;;;;;;;9.70;4.00;;;;;;;;;;5034778;28;20927;-71
2024/01/10 04:45:43;;;;;;;9.73;3.90;;;;;;;;;;5032506;28;20225;-73
2024/01/10 04:48:09;;;;;;;8.87;4.07;;;;;;;;;;5051850;28;20632;-73
2024/01/10 04:50:35;;;;;;;11.73;4.10;;;;;;;;;;5027932;28;20219;-74
2024/01/10 04:53:00;;;;;;;10.63;4.33;;;;;;;;;;5026578;28;20766;-73
2024/01/10 04:55:25;;;;;;;9.73;4.43;;;;;;;;;;5060200;28;20250;-72
2024/01/10 04:57:51;;;;;;;12.13;4.90;;;;;;;;;;5048126;28;20232;-73
2024/01/10 05:00:16;;;;;;;12.53;5.00;;;;;;;;;;5048520;28;20699;-72
2024/01/10 05:02:42;;;;;;;12.30;4.60;;;;;;;;;;5037995;28;20244;-73
2024/01/10 05:05:07;;;;;;;9.47;4.27;;;;;;;;;;5050505;28;20225;-73
2024/01/10 05:07:32;;;;;;;7.37;3.77;;;;;;;;;;5053552;28;20244;-72
2024/01/10 05:09:58;;;;;;;11.53;4.40;;;;;;;;;;5049948;28;20228;-73
2024/01/10 05:12:23;;;;;;;9.30;4.40;;;;;;;;;;5051398;28;20302;-72
2024/01/10 05:14:48;;;;;;;9.03;4.20;;;;;;;;;;5049433;28;20278;-73
2024/01/10 05:17:14;;;;;;;8.80;4.43;;;;;;;;;;5051079;28;20216;-72
2024/01/10 05:19:39;;;;;;;8.63;4.30;;;;;;;;;;5033652;28;20213;-73
2024/01/10 05:22:05;;;;;;;13.23;5.17;;;;;;;;;;5052627;28;20229;-73
2024/01/10 05:24:30;;;;;;;15.47;6.43;;;;;;;;;;5037886;28;20221;-73
2024/01/10 05:26:55;;;;;;;15.43;6.23;;;;;;;;;;5051224;28;20746;-73
2024/01/10 05:29:23;;;;;;;16.83;6.17;;;;;;;;;;5053420;28;20231;-73
2024/01/10 05:31:49;;;;;;;13.40;5.23;;;;;;;;;;5048134;28;20277;-74
2024/01/10 05:34:14;;;;;;;11.90;5.00;;;;;;;;;;5050217;28;20225;-72
2024/01/10 05:36:39;;;;;;;10.50;4.47;;;;;;;;;;5052286;28;20672;-71
2024/01/10 05:39:05;;;;;;;10.50;4.57;;;;;;;;;;5055424;28;20220;-71
2024/01/10 05:41:30;;;;;;;11.33;3.60;;;;;;;;;;5037529;28;20320;-72
2024/01/10 05:43:55;;;;;;;8.30;3.57;;;;;;;;;;5050683;28;20804;-72
2024/01/10 05:46:21;;;;;;;7.00;3.33;;;;;;;;;;5051137;28;20371;-73
2024/01/10 05:48:46;;;;;;;9.43;3.60;;;;;;;;;;5050001;28;20315;-73
2024/01/10 05:51:12;;;;;;;8.33;3.40;;;;;;;;;;5043355;28;20304;-72
2024/01/10 05:53:37;;;;;;;8.60;3.90;;;;;;;;;;5050452;28;20217;-72
2024/01/10 05:56:03;;;;;;;7.13;3.50;;;;;;;;;;5048088;28;20217;-73
2024/01/10 05:58:28;;;;;;;8.43;3.40;;;;;;;;;;5048605;28;20205;-73
2024/01/10 06:00:54;;;;;;;9.77;3.70;;;;;;;;;;5049893;28;20232;-73
2024/01/10 06:03:20;;;;;;;9.33;3.97;;;;;;;;;;5046670;28;20304;-72
2024/01/10 06:05:45;;;;;;;10.67;4.17;;;;;;;;;;5046401;28;20320;-72
2024/01/10 06:08:11;;;;;;;11.80;4.30;;;;;;;;;;5051622;28;20247;-73
2024/01/10 06:10:36;;;;;;;10.27;4.37;;;;;;;;;;5050581;28;20225;-72
2024/01/10 06:13:02;;;;;;;9.57;4.07;;;;;;;;;;5058718;28;20902;-73
2024/01/10 06:15:27;;;;;;;8.50;3.53;;;;;;;;;;5050191;28;20624;-72
2024/01/10 06:17:52;;;;;;;8.70;4.00;;;;;;;;;;5048261;28;20229;-73
2024/01/10 06:20:18;;;;;;;15.07;4.30;;;;;;;;;;5037397;28;20271;-73
2024/01/10 06:22:43;;;;;;;8.83;4.47;;;;;;;;;;5037205;28;20240;-73
2024/01/10 06:25:09;;;;;;;13.20;4.40;;;;;;;;;;5051130;28;20225;-72
2024/01/10 06:27:34;;;;;;;10.27;4.47;;;;;;;;;;5050463;28;20349;-72
2024/01/10 06:29:59;;;;;;;11.20;4.70;;;;;;;;;;5045476;28;20922;-73
2024/01/10 06:32:25;;;;;;;11.50;4.93;;;;;;;;;;5052954;28;20725;-72
2024/01/10 06:34:51;;;;;;;7.97;3.70;;;;;;;;;;5051464;28;20758;-73
2024/01/10 06:37:16;;;;;;;6.90;3.33;;;;;;;;;;5056462;28;20229;-73
2024/01/10 06:39:41;;;;;;;7.50;3.73;;;;;;;;;;5051400;28;21078;-73
2024/01/10 06:42:08;;;;;;;7.13;3.33;;;;;;;;;;5051200;28;20224;-72
2024/01/10 06:44:33;;;;;;;10.03;4.30;;;;;;;;;;5039661;28;20241;-73
2024/01/10 06:46:59;;;;;;;13.53;4.63;;;;;;;;;;5040921;28;20721;-73
2024/01/10 06:49:24;;;;;;;13.07;5.27;;;;;;;;;;5051616;28;20240;-73
2024/01/10 06:51:49;;;;;;;21.93;7.23;;;;;;;;;;5052049;28;20220;-73
2024/01/10 06:54:15;;;;;;;25.10;7.90;;;;;;;;;;5046274;28;20212;-74
2024/01/10 06:56:41;;;;;;;22.70;7.90;;;;;;;;;;5053148;28;20326;-73
2024/01/10 06:59:06;;;;;;;18.90;6.80;;;;;;;;;;5053916;28;20218;-73
2024/01/10 07:01:32;;;;;;;20.23;6.93;;;;;;;;;;5052115;28;20220;-74
2024/01/10 07:03:57;;;;;;;16.70;6.60;;;;;;;;;;5052967;28;20229;-72
2024/01/10 07:06:22;;;;;;;18.63;6.37;;;;;;;;;;5055162;28;20247;-73
2024/01/10 07:08:49;;;;;;;19.83;6.27;;;;;;;;;;5062136;28;20245;-73
2024/01/10 07:11:14;;;;;;;15.73;5.80;;;;;;;;;;5054075;28;20225;-73
2024/01/10 07:13:40;;;;;;;12.63;5.47;;;;;;;;;;5050228;28;20307;-72
2024/01/10 07:16:06;;;;;;;15.10;5.20;;;;;;;;;;5049896;28;20347;-72
2024/01/10 07:18:31;;;;;;;17.67;6.07;;;;;;;;;;5052791;28;20247;-74
2024/01/10 07:20:56;;;;;;;18.33;6.33;;;;;;;;;;5038442;28;20908;-74
2024/01/10 07:23:25;;;;;;;16.30;5.90;;;;;;;;;;5038945;28;20224;-74
2024/01/10 07:25:50;;;;;;;21.47;6.37;;;;;;;;;;5049064;28;20221;-75
2024/01/10 07:28:16;;;;;;;12.47;5.17;;;;;;;;;;5049279;28;20237;-71
2024/01/10 07:30:41;;;;;;;12.47;4.83;;;;;;;;;;5055527;28;20213;-74
2024/01/10 07:33:07;;;;;;;15.53;6.00;;;;;;;;;;5045352;28;20221;-72
2024/01/10 07:35:33;;;;;;;17.03;6.60;;;;;;;;;;5036503;28;20225;-72
2024/01/10 07:37:58;;;;;;;13.30;5.33;;;;;;;;;;5033992;28;20239;-74
2024/01/10 07:40:23;;;;;;;18.53;6.53;;;;;;;;;;5048951;28;20229;-72
2024/01/10 07:42:49;;;;;;;14.87;5.67;;;;;;;;;;5036645;28;20274;-73
2024/01/10 07:45:15;;;;;;;17.53;6.20;;;;;;;;;;5036737;28;20224;-74
2024/01/10 07:47:40;;;;;;;18.10;6.47;;;;;;;;;;5060307;28;20249;-74
2024/01/10 07:50:06;;;;;;;21.97;7.50;;;;;;;;;;5035851;28;20228;-72
2024/01/10 07:52:32;;;;;;;21.53;7.13;;;;;;;;;;5030829;28;20205;-71
2024/01/10 07:54:57;;;;;;;16.33;6.23;;;;;;;;;;5053523;28;20220;-72
2024/01/10 07:57:23;;;;;;;12.67;4.90;;;;;;;;;;5048213;28;20256;-73
2024/01/10 07:59:48;;;;;;;12.33;5.00;;;;;;;;;;5054291;28;20233;-74
2024/01/10 08:02:13;;;;;;;15.53;5.93;;;;;;;;;;5059813;28;20747;-73
2024/01/10 08:04:39;;;;;;;14.73;5.90;;;;;;;;;;5060371;28;20224;-74
2024/01/10 08:07:04;;;;;;;13.60;5.73;;;;;;;;;;5036204;28;20666;-73
2024/01/10 08:09:29;;;;;;;14.00;5.73;;;;;;;;;;5057316;28;20236;-74
2024/01/10 08:11:55;;;;;;;9.13;4.07;;;;;;;;;;5052254;28;20210;-72
2024/01/10 08:14:20;;;;;;;9.60;3.77;;;;;;;;;;5033971;28;20232;-73
2024/01/10 08:16:45;;;;;;;11.87;4.00;;;;;;;;;;5048596;28;20310;-72
2024/01/10 08:19:11;;;;;;;7.30;3.00;;;;;;;;;;5053634;28;20256;-73
2024/01/10 08:21:36;;;;;;;9.17;3.60;;;;;;;;;;5054523;28;20840;-74
2024/01/10 08:24:02;;;;;;;12.33;3.93;;;;;;;;;;5038454;28;20224;-73
2024/01/10 08:26:27;;;;;;;11.10;4.57;;;;;;;;;;5053347;28;20337;-72
2024/01/10 08:28:53;;;;;;;12.47;4.80;;;;;;;;;;5052431;28;20320;-71
2024/01/10 08:31:18;;;;;;;12.47;4.67;;;;;;;;;;5045090;28;20756;-72
2024/01/10 08:33:44;;;;;;;11.03;4.30;;;;;;;;;;5048111;28;20237;-73
2024/01/10 08:36:10;;;;;;;10.77;4.47;;;;;;;;;;5053425;28;20233;-73
2024/01/10 08:38:35;;;;;;;11.10;4.27;;;;;;;;;;5038545;28;20217;-74
2024/01/10 08:41:01;;;;;;;11.83;4.33;;;;;;;;;;5054621;28;20313;-74
2024/01/10 08:43:26;;;;;;;12.67;4.60;;;;;;;;;;5050440;28;20291;-74
2024/01/10 08:45:52;;;;;;;8.53;4.30;;;;;;;;;;5037864;28;20229;-73
2024/01/10 08:48:17;;;;;;;11.03;4.37;;;;;;;;;;5051199;28;20303;-73
2024/01/10 08:50:43;;;;;;;12.77;4.90;;;;;;;;;;5041967;28;20228;-73
2024/01/10 08:53:09;;;;;;;14.77;5.07;;;;;;;;;;5048383;28;20228;-73
2024/01/10 08:55:36;;;;;;;12.20;4.73;;;;;;;;;;5050275;28;20722;-73
2024/01/10 08:58:02;;;;;;;13.23;4.80;;;;;;;;;;5055566;28;20244;-74
2024/01/10 09:00:28;;;;;;;12.57;5.50;;;;;;;;;;5051979;28;20706;-73
2024/01/10 09:02:54;;;;;;;18.20;5.07;;;;;;;;;;5035611;28;20229;-73
2024/01/10 09:05:21;;;;;;;16.27;6.40;;;;;;;;;;5043426;28;20222;-73
2024/01/10 09:07:46;;;;;;;14.10;5.33;;;;;;;;;;5053114;28;20244;-72
2024/01/10 09:10:12;;;;;;;14.70;6.07;;;;;;;;;;5052309;28;20239;-72
2024/01/10 09:12:37;;;;;;;15.27;6.40;;;;;;;;;;5052430;28;20306;-73
2024/01/10 09:15:03;;;;;;;15.97;6.13;;;;;;;;;;5049495;28;20228;-74
2024/01/10 09:17:28;;;;;;;12.30;5.80;;;;;;;;;;5036327;28;20232;-73
2024/01/10 09:19:54;;;;;;;17.07;6.60;;;;;;;;;;5054398;28;20224;-75
2024/01/10 09:22:19;;;;;;;17.00;6.50;;;;;;;;;;5048081;28;20347;-75
2024/01/10 09:24:44;;;;;;;14.40;5.90;;;;;;;;;;5042309;28;20239;-74
2024/01/10 09:27:10;;;;;;;15.57;6.50;;;;;;;;;;5031429;28;20225;-76
2024/01/10 09:29:35;;;;;;;24.07;8.80;;;;;;;;;;5053794;28;20221;-74
2024/01/10 09:32:01;;;;;;;30.27;12.70;;;;;;;;;;5036814;28;20306;-75
2024/01/10 09:34:26;;;;;;;20.70;9.90;;;;;;;;;;5053048;28;20346;-74
2024/01/10 09:36:52;;;;;;;17.13;6.73;;;;;;;;;;5051337;28;20236;-74
2024/01/10 09:39:18;;;;;;;17.73;6.43;;;;;;;;;;5039225;28;20252;-74
2024/01/10 09:41:50;;;;;;;16.57;6.60;;;;;;;;;;5038030;28;20862;-75
2024/01/10 09:44:17;;;;;;;17.67;7.10;;;;;;;;;;5049525;28;20945;-78
2024/01/10 09:46:43;;;;;;;165.37;53.37;;;;;;;;;;5049413;28;20232;-74
2024/01/10 09:49:09;;;;;;;40.07;16.77;;;;;;;;;;5050564;28;20237;-75
2024/01/10 09:51:34;;;;;;;19.50;7.13;;;;;;;;;;5042985;28;20804;-76
2024/01/10 09:54:00;;;;;;;23.13;6.63;;;;;;;;;;5052810;28;20259;-74
2024/01/10 09:56:25;;;;;;;14.50;6.30;;;;;;;;;;5043760;28;20217;-75
2024/01/10 09:58:51;;;;;;;16.93;6.27;;;;;;;;;;5036982;28;20668;-76
2024/01/10 10:01:17;;;;;;;16.30;6.10;;;;;;;;;;5047893;28;20252;-76
2024/01/10 10:03:43;;;;;;;15.37;5.83;;;;;;;;;;5034310;28;20264;-74
2024/01/10 10:06:08;;;;;;;17.40;5.93;;;;;;;;;;5035700;28;20253;-75
2024/01/10 10:08:33;;;;;;;15.93;6.20;;;;;;;;;;5037034;28;20719;-74
2024/01/10 10:10:59;;;;;;;13.27;5.80;;;;;;;;;;5055913;28;20317;-75
2024/01/10 10:13:25;;;;;;;15.17;5.43;;;;;;;;;;5046334;28;20932;-75
2024/01/10 10:16:00;;;;;;;10.07;4.43;;;;;;;;;;5038124;28;20234;-75
2024/01/10 10:18:26;;;;;;;19.73;5.10;;;;;;;;;;5064854;28;20228;-73
2024/01/10 10:21:05;;;;;;;12.67;5.00;;;;;;;;;;5053635;28;20622;-74
2024/01/10 10:23:31;;;;;;;10.07;4.90;;;;;;;;;;5045480;28;20308;-73
2024/01/10 10:25:56;;;;;;;11.43;4.67;;;;;;;;;;5042174;28;20312;-73
2024/01/10 10:28:22;;;;;;;10.57;4.57;;;;;;;;;;5055990;28;20229;-74
2024/01/10 10:30:47;;;;;;;14.43;4.60;;;;;;;;;;5055653;28;25115;-73
2024/01/10 10:33:12;;;;;;;14.63;4.90;;;;;;;;;;5052621;28;20259;-73
2024/01/10 10:35:38;;;;;;;15.00;6.13;;;;;;;;;;5062652;28;20290;-75
2024/01/10 10:38:03;;;;;;;10.27;5.17;;;;;;;;;;5063060;28;20221;-75
2024/01/10 10:40:28;;;;;;;11.20;5.03;;;;;;;;;;5057456;28;20221;-74
2024/01/10 10:42:54;;;;;;;14.63;5.10;;;;;;;;;;5055916;28;20221;-73
2024/01/10 10:45:25;;;;;;;14.67;6.20;;;;;;;;;;5045922;28;20708;-72
2024/01/10 10:47:50;;;;;;;27.53;12.13;;;;;;;;;;5038574;28;20237;-73
2024/01/10 10:50:26;;;;;;;24.03;10.50;;;;;;;;;;5053868;28;20659;-74
2024/01/10 10:52:51;;;;;;;28.60;11.50;;;;;;;;;;5054485;28;20686;-72
2024/01/10 10:55:20;;;;;;;25.27;9.87;;;;;;;;;;5040962;28;20236;-73
2024/01/10 10:57:46;;;;;;;27.17;11.17;;;;;;;;;;5036192;28;20652;-71
2024/01/10 11:00:17;;;;;;;33.10;14.10;;;;;;;;;;5039878;28;20266;-72
2024/01/10 11:02:46;;;;;;;24.77;9.40;;;;;;;;;;5056786;28;20221;-73
2024/01/10 11:05:11;;;;;;;23.50;9.60;;;;;;;;;;5062181;28;20255;-76
2024/01/10 11:07:37;;;;;;;24.60;9.53;;;;;;;;;;5044396;28;20245;-77
2024/01/10 11:10:03;;;;;;;25.17;10.27;;;;;;;;;;5057120;28;20266;-77
2024/01/10 11:12:40;;;;;;;25.57;10.07;;;;;;;;;;5051129;28;20229;-75
2024/01/10 11:15:10;;;;;;;27.83;11.10;;;;;;;;;;5062863;28;20960;-76
2024/01/10 11:17:43;;;;;;;27.70;10.27;;;;;;;;;;5053215;28;20226;-78
2024/01/10 11:20:21;;;;;;;27.40;10.40;;;;;;;;;;5041277;28;20283;-78
2024/01/10 11:22:46;;;;;;;24.80;10.20;;;;;;;;;;5051953;28;20242;-75
2024/01/10 11:25:12;;;;;;;29.73;9.83;;;;;;;;;;5054989;28;20221;-76
2024/01/10 11:27:37;;;;;;;30.40;12.03;;;;;;;;;;5049974;28;20247;-75
2024/01/10 11:30:04;;;;;;;26.97;10.60;;;;;;;;;;5050564;28;20221;-77
2024/01/10 11:32:30;;;;;;;28.37;10.10;;;;;;;;;;5055543;28;20227;-77
2024/01/10 11:34:58;;;;;;;26.97;9.90;;;;;;;;;;5038608;28;20225;-76
2024/01/10 11:37:23;;;;;;;28.77;10.37;;;;;;;;;;5050043;28;21240;-77
2024/01/10 11:39:50;;;;;;;29.13;12.40;;;;;;;;;;5051022;28;20334;-76
2024/01/10 11:42:23;;;;;;;26.73;11.00;;;;;;;;;;5044790;28;20217;-78
2024/01/10 11:44:51;;;;;;;22.00;9.33;;;;;;;;;;5044668;28;20248;-77
2024/01/10 11:47:18;;;;;;;25.23;10.30;;;;;;;;;;5039357;28;20279;-77
2024/01/10 11:50:04;;;;;;;27.40;10.10;;;;;;;;;;5038523;28;20221;-77
2024/01/10 11:52:33;;;;;;;27.93;10.87;;;;;;;;;;5050291;28;20221;-77
2024/01/10 11:54:58;;;;;;;29.87;13.60;;;;;;;;;;5051511;28;20232;-72
2024/01/10 11:57:27;;;;;;;31.63;12.63;;;;;;;;;;5052253;28;20217;-74
2024/01/10 11:59:53;;;;;;;28.60;10.87;;;;;;;;;;5054858;28;20317;-74
2024/01/10 12:02:19;;;;;;;29.57;10.93;;;;;;;;;;5052308;28;20271;-74
2024/01/10 12:04:45;;;;;;;25.73;11.00;;;;;;;;;;5053004;28;20236;-73
2024/01/10 12:07:11;;;;;;;29.23;11.00;;;;;;;;;;5050044;28;20240;-74
2024/01/10 12:09:36;;;;;;;31.50;12.53;;;;;;;;;;5038454;28;20269;-73
2024/01/10 12:12:04;;;;;;;34.97;13.40;;;;;;;;;;5053241;28;20757;-73
2024/01/10 12:14:30;;;;;;;38.80;15.93;;;;;;;;;;5051092;28;20229;-73
2024/01/10 12:16:59;;;;;;;27.73;11.40;;;;;;;;;;5051238;28;20852;-73
2024/01/10 12:19:24;;;;;;;31.90;12.73;;;;;;;;;;5036930;28;20232;-76
2024/01/10 12:21:49;;;;;;;43.77;19.33;;;;;;;;;;5049575;28;20217;-74
2024/01/10 12:24:15;;;;;;;36.23;14.80;;;;;;;;;;5050636;28;20234;-76
2024/01/10 12:26:43;;;;;;;29.77;12.57;;;;;;;;;;5052167;28;20273;-76
2024/01/10 12:29:09;;;;;;;30.30;12.13;;;;;;;;;;5051935;28;20356;-74
2024/01/10 12:31:35;;;;;;;30.03;11.93;;;;;;;;;;5052822;28;20225;-74
2024/01/10 12:34:00;;;;;;;37.07;12.90;;;;;;;;;;5043610;28;20236;-75
2024/01/10 12:36:25;;;;;;;28.00;12.63;;;;;;;;;;5051653;28;20636;-74
2024/01/10 12:38:51;;;;;;;28.87;12.27;;;;;;;;;;5050873;28;20224;-77
2024/01/10 12:41:17;;;;;;;29.70;11.37;;;;;;;;;;5037606;28;20608;-75
2024/01/10 12:43:42;;;;;;;32.27;13.27;;;;;;;;;;5049731;28;20225;-76
2024/01/10 12:46:10;;;;;;;43.97;17.70;;;;;;;;;;5052244;28;20720;-75
2024/01/10 12:48:41;;;;;;;40.40;16.10;;;;;;;;;;5052986;28;20229;-74
2024/01/10 12:51:06;;;;;;;29.63;11.70;;;;;;;;;;5050951;28;20224;-74
2024/01/10 12:53:38;;;;;;;35.73;13.60;;;;;;;;;;5052205;28;20247;-75
2024/01/10 12:56:04;;;;;;;31.53;12.57;;;;;;;;;;5054369;28;20232;-73
2024/01/10 12:58:30;;;;;;;28.53;11.33;;;;;;;;;;5052967;28;20226;-75
2024/01/10 13:00:56;;;;;;;33.20;12.07;;;;;;;;;;5050852;28;20221;-75
2024/01/10 13:03:21;;;;;;;72.57;22.40;;;;;;;;;;5035707;28;20256;-75
2024/01/10 13:05:47;;;;;;;42.27;16.10;;;;;;;;;;5049447;28;20234;-75
2024/01/10 13:08:12;;;;;;;31.63;12.60;;;;;;;;;;5036843;28;20244;-75
2024/01/10 13:10:41;;;;;;;33.60;12.90;;;;;;;;;;5050942;28;20264;-73
2024/01/10 13:13:06;;;;;;;31.50;12.20;;;;;;;;;;5050431;28;20228;-74
2024/01/10 13:15:31;;;;;;;28.57;11.53;;;;;;;;;;5050956;28;20619;-73
2024/01/10 13:17:57;;;;;;;27.20;11.90;;;;;;;;;;5050118;28;20229;-73
2024/01/10 13:20:24;;;;;;;34.53;13.83;;;;;;;;;;5049015;28;20221;-74
2024/01/10 13:22:50;;;;;;;27.17;11.50;;;;;;;;;;5045427;28;20324;-74
2024/01/10 13:25:16;;;;;;;27.03;11.47;;;;;;;;;;5042623;28;20271;-73
2024/01/10 13:27:41;;;;;;;37.17;12.97;;;;;;;;;;5048898;28;20718;-73
2024/01/10 13:30:07;;;;;;;32.87;12.17;;;;;;;;;;5060428;28;20260;-74
2024/01/10 13:32:32;;;;;;;25.07;10.50;;;;;;;;;;5033543;28;21008;-71
2024/01/10 13:34:57;;;;;;;31.33;11.67;;;;;;;;;;5059810;28;20217;-74
2024/01/10 13:37:23;;;;;;;25.47;9.60;;;;;;;;;;5046884;28;20233;-74
2024/01/10 13:39:48;;;;;;;28.77;9.63;;;;;;;;;;5036733;28;20780;-74
2024/01/10 13:42:14;;;;;;;34.17;12.67;;;;;;;;;;5056699;28;20634;-74
2024/01/10 13:44:39;;;;;;;27.87;10.40;;;;;;;;;;5055529;28;20340;-74
2024/01/10 13:47:05;;;;;;;26.30;10.13;;;;;;;;;;5055505;28;20229;-73
2024/01/10 13:49:30;;;;;;;29.87;10.13;;;;;;;;;;5053127;28;20233;-73
2024/01/10 13:51:56;;;;;;;24.40;10.40;;;;;;;;;;5058719;28;20702;-74
2024/01/10 13:54:21;;;;;;;93.20;28.30;;;;;;;;;;5052346;28;20256;-72
2024/01/10 13:56:47;;;;;;;28.93;10.80;;;;;;;;;;5052769;28;20830;-73
2024/01/10 13:59:12;;;;;;;28.70;10.80;;;;;;;;;;5057875;28;20649;-74
2024/01/10 14:01:37;;;;;;;54.17;24.13;;;;;;;;;;5063602;28;20233;-74
2024/01/10 14:04:03;;;;;;;38.20;15.40;;;;;;;;;;5062701;28;20240;-74
2024/01/10 14:06:29;;;;;;;32.50;11.87;;;;;;;;;;5053868;28;20276;-73
2024/01/10 14:08:54;;;;;;;30.77;11.47;;;;;;;;;;5062857;28;20248;-74
2024/01/10 14:11:19;;;;;;;30.57;11.67;;;;;;;;;;5053942;28;20264;-73
2024/01/10 14:13:45;;;;;;;38.27;16.73;;;;;;;;;;5038239;28;20228;-74
2024/01/10 14:16:10;;;;;;;33.97;12.17;;;;;;;;;;5051824;28;21054;-74
2024/01/10 14:18:36;;;;;;;32.20;12.93;;;;;;;;;;5054618;28;20758;-75
2024/01/10 14:21:02;;;;;;;33.67;15.43;;;;;;;;;;5051465;28;20225;-74
2024/01/10 14:23:27;;;;;;;31.43;12.80;;;;;;;;;;5054231;28;20230;-74